Startpagina
METAR-TAF:

METAR-TAF

Vliegvelden :

Tsjita, Rusland

breedte: 52-05N, lengte: 113-29E, hoogte: 685 m

Actueel weer

Dit bericht is 27 minuten geleden gemaakt, om 23:30 UTC
Wind 6 kt uit het zuidzuidwesten
Temperatuur 13°C
Vochtigheid 77%
Druk 1008 hPa
Zicht 10 km of meer
Verspreide wolken op 5000 ft, Cumulonimbus.

METAR: UIAA 172330Z 21003MPS 9999 SCT050CB 13/09 Q1008 R29/70D NOSIG RMK QFE698/0931

Tijdstip: 08:57 (23:57 UTC)

Verwachting

Dit bericht is 57 minuten geleden gemaakt, om 23:00 UTC
Verwachting geldig van 18 om 00 UTC tot 18 om 24 UTC
Wind 6 kt uit het zuidwesten
Zicht 10 km of meer
Verspreide wolken op 4000 ft, Cumulonimbus.
Tijdelijke
van 18 om 03 UTC tot 18 om 15 UTC
Wind 16 kt uit variabele richting
onweer, lichte regen

TAF: UIAA 172300Z 1800/1824 23003MPS 9999 SCT040CB TEMPO 1803/1815 VRB08MPS -TSRA

Waarnemingen en weersverwachtingen van meer dan 4000 vliegvelden (METAR en TAF).

De beschikbare stations zijn de gele en rode punten op de kaart.

Ga met uw muis naar het station om de naam te zien.

Klik dan om waarnemingen en weersverwachtingen te zien.

kaart wijzigen: klik op de groene knoppen met een zwart kruis om in te zoomen, op de groene knop met een streepje om uit te zoomen of op de groene pijlen voor aangrenzende kaarten.


METAR-TAF: